createdAt,value
2023-04-15T00:01:02.249Z,3.30
2023-04-15T00:03:28.734Z,3.29
2023-04-15T00:05:55.081Z,3.29
2023-04-15T00:08:21.295Z,3.35
2023-04-15T00:10:47.515Z,3.34
2023-04-15T00:13:13.684Z,3.35
2023-04-15T00:15:39.867Z,3.35
2023-04-15T00:18:06.064Z,3.33
2023-04-15T00:20:32.226Z,3.33
2023-04-15T00:22:58.410Z,3.32
2023-04-15T00:25:24.577Z,3.27
2023-04-15T00:27:50.737Z,3.25
2023-04-15T00:30:16.936Z,3.19
2023-04-15T00:32:43.208Z,3.13
2023-04-15T00:35:09.421Z,3.11
2023-04-15T00:37:35.631Z,3.08
2023-04-15T00:40:01.873Z,3.00
2023-04-15T00:42:28.025Z,2.92
2023-04-15T00:44:54.184Z,2.88
2023-04-15T00:47:20.574Z,2.89
2023-04-15T00:49:46.808Z,2.89
2023-04-15T00:52:12.957Z,2.90
2023-04-15T00:54:39.153Z,2.79
2023-04-15T00:57:05.897Z,2.75
2023-04-15T00:59:32.109Z,2.70
2023-04-15T01:01:58.456Z,2.61
2023-04-15T01:04:24.865Z,2.54
2023-04-15T01:06:51.100Z,2.54
2023-04-15T01:09:17.272Z,2.47
2023-04-15T01:11:43.456Z,2.39
2023-04-15T01:14:09.665Z,2.32
2023-04-15T01:16:35.880Z,2.31
2023-04-15T01:19:02.322Z,2.28
2023-04-15T01:21:28.740Z,2.24
2023-04-15T01:23:54.865Z,2.33
2023-04-15T01:26:21.035Z,2.41
2023-04-15T01:28:47.211Z,2.33
2023-04-15T01:31:13.481Z,2.21
2023-04-15T01:33:39.720Z,2.31
2023-04-15T01:36:05.933Z,2.33
2023-04-15T01:38:32.105Z,2.31
2023-04-15T01:40:58.273Z,2.28
2023-04-15T01:43:24.460Z,2.28
2023-04-15T01:45:50.635Z,2.23
2023-04-15T01:48:16.818Z,2.23
2023-04-15T01:50:42.987Z,2.38
2023-04-15T01:53:09.207Z,2.33
2023-04-15T01:55:35.417Z,2.29
2023-04-15T01:58:01.946Z,2.25
2023-04-15T02:00:28.185Z,2.19
2023-04-15T02:02:54.458Z,2.19
2023-04-15T02:05:20.633Z,2.10
2023-04-15T02:07:46.835Z,2.03
2023-04-15T02:10:13.002Z,1.99
2023-04-15T02:12:39.177Z,1.96
2023-04-15T02:15:05.455Z,1.91
2023-04-15T02:17:31.701Z,1.91
2023-04-15T02:19:57.919Z,1.92
2023-04-15T02:22:24.098Z,1.88
2023-04-15T02:24:50.233Z,1.83
2023-04-15T02:27:16.410Z,1.80
2023-04-15T02:29:42.578Z,1.75
2023-04-15T02:32:08.812Z,1.73
2023-04-15T02:34:34.989Z,1.74
2023-04-15T02:37:01.126Z,1.73
2023-04-15T02:39:27.282Z,1.68
2023-04-15T02:41:53.526Z,1.67
2023-04-15T02:44:19.830Z,1.68
2023-04-15T02:46:46.017Z,1.66
2023-04-15T02:49:12.204Z,1.63
2023-04-15T02:51:38.422Z,1.61
2023-04-15T02:54:04.560Z,1.61
2023-04-15T02:56:30.732Z,1.59
2023-04-15T02:58:56.970Z,1.57
2023-04-15T03:01:23.160Z,1.54
2023-04-15T03:03:49.585Z,1.57
2023-04-15T03:06:15.879Z,1.58
2023-04-15T03:08:42.068Z,1.53
2023-04-15T03:11:08.208Z,1.48
2023-04-15T03:13:34.376Z,1.57
2023-04-15T03:16:00.647Z,1.51
2023-04-15T03:18:26.903Z,1.44
2023-04-15T03:20:53.079Z,1.46
2023-04-15T03:23:19.264Z,1.42
2023-04-15T03:25:45.418Z,1.40
2023-04-15T03:28:11.628Z,1.42
2023-04-15T03:30:37.822Z,1.38
2023-04-15T03:33:03.990Z,1.37
2023-04-15T03:35:30.129Z,1.43
2023-04-15T03:37:56.312Z,1.46
2023-04-15T03:40:22.508Z,1.43
2023-04-15T03:42:48.754Z,1.43
2023-04-15T03:45:15.000Z,1.44
2023-04-15T03:47:41.217Z,1.39
2023-04-15T03:50:07.507Z,1.38
2023-04-15T03:52:33.707Z,1.36
2023-04-15T03:54:59.897Z,1.31
2023-04-15T03:57:26.012Z,1.31
2023-04-15T03:59:52.184Z,1.28
2023-04-15T04:02:18.494Z,1.28
2023-04-15T04:04:44.716Z,1.23
2023-04-15T04:07:10.949Z,1.31
2023-04-15T04:09:37.139Z,1.27
2023-04-15T04:12:03.323Z,1.24
2023-04-15T04:14:29.501Z,1.20
2023-04-15T04:16:55.671Z,1.21
2023-04-15T04:19:21.877Z,1.16
2023-04-15T04:21:48.035Z,1.11
2023-04-15T04:24:14.197Z,1.11
2023-04-15T04:26:40.370Z,1.10
2023-04-15T04:29:06.618Z,1.11
2023-04-15T04:31:32.852Z,1.07
2023-04-15T04:33:59.009Z,0.98
2023-04-15T04:36:25.258Z,0.94
2023-04-15T04:38:51.480Z,0.89
2023-04-15T04:41:17.609Z,0.86
2023-04-15T04:43:43.768Z,0.90
2023-04-15T04:46:09.988Z,0.90
2023-04-15T04:48:36.249Z,0.93
2023-04-15T04:51:02.444Z,0.94
2023-04-15T04:53:28.642Z,0.95
2023-04-15T04:55:54.826Z,0.99
2023-04-15T04:58:21.038Z,1.00
2023-04-15T05:00:47.218Z,1.04
2023-04-15T05:03:13.608Z,1.07
2023-04-15T05:05:39.987Z,1.11
2023-04-15T05:08:06.225Z,1.12
2023-04-15T05:10:32.373Z,1.23
2023-04-15T05:12:58.552Z,1.21
2023-04-15T05:15:24.697Z,1.18
2023-04-15T05:17:50.977Z,1.21
2023-04-15T05:20:17.174Z,1.25
2023-04-15T05:22:43.379Z,1.41
2023-04-15T05:25:09.600Z,1.41
2023-04-15T05:27:35.780Z,1.46
2023-04-15T05:30:02.032Z,1.52
2023-04-15T05:32:28.225Z,1.61
2023-04-15T05:34:54.455Z,1.70
2023-04-15T05:37:20.746Z,1.84
2023-04-15T05:39:46.890Z,2.02
2023-04-15T05:42:13.101Z,2.17
2023-04-15T05:44:39.334Z,2.34
2023-04-15T05:47:05.529Z,2.49
2023-04-15T05:49:31.663Z,2.71
2023-04-15T05:51:57.870Z,2.90
2023-04-15T05:54:24.048Z,3.16
2023-04-15T05:56:50.225Z,3.53
2023-04-15T05:59:16.410Z,3.93
2023-04-15T06:01:42.582Z,4.28
2023-04-15T06:04:08.818Z,4.53
2023-04-15T06:06:35.070Z,4.89
2023-04-15T06:09:01.496Z,5.31
2023-04-15T06:11:27.905Z,5.50
2023-04-15T06:13:54.103Z,5.70
2023-04-15T06:16:20.325Z,5.90
2023-04-15T06:18:46.516Z,6.18
2023-04-15T06:21:12.683Z,6.60
2023-04-15T06:23:38.813Z,6.90
2023-04-15T06:26:04.946Z,7.19
2023-04-15T06:28:32.053Z,7.27
2023-04-15T06:30:58.233Z,7.58
2023-04-15T06:33:24.369Z,7.70
2023-04-15T06:35:50.560Z,7.86
2023-04-15T06:38:16.688Z,7.90
2023-04-15T06:40:42.851Z,8.20
2023-04-15T06:43:12.069Z,8.38
2023-04-15T06:45:38.258Z,8.48
2023-04-15T06:48:04.472Z,8.52
2023-04-15T06:50:30.664Z,8.61
2023-04-15T06:52:56.867Z,8.90
2023-04-15T06:55:23.028Z,9.08
2023-04-15T06:57:49.190Z,9.31
2023-04-15T07:00:15.346Z,9.73
2023-04-15T07:02:41.613Z,9.77
2023-04-15T07:05:07.777Z,9.67
2023-04-15T07:07:33.948Z,9.52
2023-04-15T07:10:00.180Z,9.59
2023-04-15T07:12:27.030Z,9.87
2023-04-15T07:14:53.214Z,10.20
2023-04-15T07:17:19.407Z,10.43
2023-04-15T07:19:45.614Z,10.63
2023-04-15T07:22:11.813Z,10.24
2023-04-15T07:24:38.002Z,10.67
2023-04-15T07:27:04.232Z,10.99
2023-04-15T07:29:30.430Z,11.42
2023-04-15T07:31:56.581Z,11.82
2023-04-15T07:34:22.761Z,12.16
2023-04-15T07:36:48.928Z,12.35
2023-04-15T07:39:15.115Z,12.99
2023-04-15T07:41:41.308Z,13.07
2023-04-15T07:44:07.510Z,12.58
2023-04-15T07:46:33.806Z,12.37
2023-04-15T07:49:00.286Z,12.33
2023-04-15T07:51:26.920Z,12.62
2023-04-15T07:53:54.265Z,12.58
2023-04-15T07:56:20.419Z,12.46
2023-04-15T07:58:46.559Z,12.62
2023-04-15T08:01:12.700Z,12.58
2023-04-15T08:03:38.962Z,12.73
2023-04-15T08:06:05.241Z,12.89
2023-04-15T08:08:31.436Z,12.53
2023-04-15T08:10:57.658Z,12.82
2023-04-15T08:13:23.852Z,12.64
2023-04-15T08:15:50.060Z,13.15
2023-04-15T08:18:16.230Z,13.19
2023-04-15T08:20:42.493Z,13.82
2023-04-15T08:23:08.679Z,14.90
2023-04-15T08:25:35.087Z,16.10
2023-04-15T08:28:01.277Z,16.06
2023-04-15T08:30:27.455Z,16.27
2023-04-15T08:32:53.691Z,16.97
2023-04-15T08:35:19.928Z,16.42
2023-04-15T08:37:46.159Z,16.53
2023-04-15T08:40:12.372Z,16.74
2023-04-15T08:42:38.553Z,16.63
2023-04-15T08:45:04.683Z,16.85
2023-04-15T08:47:32.123Z,16.63
2023-04-15T08:49:59.056Z,16.65
2023-04-15T08:52:25.450Z,16.91
2023-04-15T08:54:51.658Z,17.59
2023-04-15T08:57:17.803Z,17.39
2023-04-15T08:59:44.000Z,17.27
2023-04-15T09:02:10.191Z,16.86
2023-04-15T09:04:36.372Z,16.95
2023-04-15T09:07:02.548Z,18.14
2023-04-15T09:09:28.728Z,18.78
2023-04-15T09:11:54.908Z,19.54
2023-04-15T09:14:21.053Z,18.79
2023-04-15T09:16:48.625Z,18.16
2023-04-15T09:19:16.098Z,18.75
2023-04-15T09:21:42.270Z,18.75
2023-04-15T09:24:08.451Z,18.25
2023-04-15T09:26:34.687Z,18.86
2023-04-15T09:29:00.867Z,18.40
2023-04-15T09:31:27.128Z,18.42
2023-04-15T09:33:53.381Z,17.72
2023-04-15T09:36:19.608Z,17.92
2023-04-15T09:38:45.751Z,17.91
2023-04-15T09:41:11.954Z,17.64
2023-04-15T09:43:38.122Z,17.37
2023-04-15T09:46:04.387Z,16.90
2023-04-15T09:48:30.583Z,17.14
2023-04-15T09:50:56.757Z,16.86
2023-04-15T09:53:22.953Z,16.59
2023-04-15T09:55:49.107Z,16.49
2023-04-15T09:58:15.350Z,16.33
2023-04-15T10:00:41.483Z,16.64
2023-04-15T10:03:07.782Z,16.46
2023-04-15T10:05:33.981Z,16.33
2023-04-15T10:08:00.159Z,16.31
2023-04-15T10:10:26.342Z,16.13
2023-04-15T10:12:52.480Z,16.14
2023-04-15T10:15:21.671Z,16.62
2023-04-15T10:17:47.877Z,16.82
2023-04-15T10:20:14.058Z,17.95
2023-04-15T10:22:40.250Z,18.86
2023-04-15T10:25:06.433Z,18.58
2023-04-15T10:27:32.573Z,18.73
2023-04-15T10:29:58.809Z,18.21
2023-04-15T10:32:24.975Z,17.57
2023-04-15T10:34:53.074Z,17.40
2023-04-15T10:37:20.424Z,17.25
2023-04-15T10:39:46.602Z,17.53
2023-04-15T10:42:12.808Z,17.18
2023-04-15T10:44:40.120Z,17.21
2023-04-15T10:47:06.271Z,17.50
2023-04-15T10:49:32.435Z,17.67
2023-04-15T10:51:58.588Z,18.47
2023-04-15T10:54:24.854Z,19.63
2023-04-15T10:56:51.017Z,18.71
2023-04-15T10:59:17.190Z,18.32
2023-04-15T11:01:43.425Z,17.53
2023-04-15T11:04:12.614Z,17.37
2023-04-15T11:06:38.888Z,17.67
2023-04-15T11:09:05.082Z,17.48
2023-04-15T11:11:31.257Z,17.38
2023-04-15T11:13:57.526Z,17.17
2023-04-15T11:16:23.753Z,17.77
2023-04-15T11:18:49.989Z,18.12
2023-04-15T11:21:16.177Z,18.70
2023-04-15T11:23:42.324Z,18.95
2023-04-15T11:26:08.510Z,19.17
2023-04-15T11:28:40.842Z,19.63
2023-04-15T11:31:07.073Z,18.36
2023-04-15T11:33:35.221Z,17.29
2023-04-15T11:36:01.409Z,17.03
2023-04-15T11:38:27.659Z,17.13
2023-04-15T11:40:53.831Z,16.88
2023-04-15T11:43:20.060Z,16.11
2023-04-15T11:45:46.251Z,15.58
2023-04-15T11:48:12.482Z,15.62
2023-04-15T11:50:38.845Z,15.54
2023-04-15T11:53:08.685Z,15.33
2023-04-15T11:55:34.903Z,15.30
2023-04-15T11:58:01.052Z,15.11
2023-04-15T12:00:27.371Z,15.02
2023-04-15T12:02:53.643Z,15.29
2023-04-15T12:05:20.006Z,15.34
2023-04-15T12:07:46.244Z,15.60
2023-04-15T12:10:12.450Z,15.65
2023-04-15T12:12:38.597Z,15.58
2023-04-15T12:15:04.784Z,15.96
2023-04-15T12:17:30.985Z,16.09
2023-04-15T12:20:17.051Z,16.46
2023-04-15T12:22:43.256Z,16.51
2023-04-15T12:25:09.456Z,16.64
2023-04-15T12:27:35.669Z,16.28
2023-04-15T12:30:01.837Z,15.91
2023-04-15T12:32:28.065Z,15.40
2023-04-15T12:34:54.300Z,15.19
2023-04-15T12:37:20.542Z,15.15
2023-04-15T12:39:46.730Z,15.05
2023-04-15T12:42:12.885Z,14.98
2023-04-15T12:44:39.059Z,14.96
2023-04-15T12:47:05.236Z,15.03
2023-04-15T12:49:31.376Z,14.77
2023-04-15T12:51:57.662Z,14.78
2023-04-15T12:54:23.852Z,14.61
2023-04-15T12:56:50.093Z,14.53
2023-04-15T12:59:16.276Z,14.39
2023-04-15T13:01:42.535Z,14.47
2023-04-15T13:04:09.328Z,14.63
2023-04-15T13:06:35.881Z,14.69
2023-04-15T13:09:03.345Z,14.73
2023-04-15T13:11:30.706Z,14.89
2023-04-15T13:13:56.923Z,14.92
2023-04-15T13:16:23.080Z,14.94
2023-04-15T13:18:49.318Z,14.89
2023-04-15T13:21:18.365Z,14.76
2023-04-15T13:23:44.543Z,14.70
2023-04-15T13:26:10.776Z,14.65
2023-04-15T13:28:36.942Z,14.67
2023-04-15T13:31:03.179Z,14.84
2023-04-15T13:33:29.349Z,14.92
2023-04-15T13:35:55.577Z,14.94
2023-04-15T13:38:24.757Z,15.10
2023-04-15T13:40:50.945Z,15.13
2023-04-15T13:43:17.133Z,15.07
2023-04-15T13:45:43.351Z,15.14
2023-04-15T13:48:09.508Z,14.99
2023-04-15T13:50:35.692Z,15.00
2023-04-15T13:53:01.916Z,15.08
2023-04-15T13:55:28.849Z,14.97
2023-04-15T13:57:55.013Z,14.92
2023-04-15T14:00:21.216Z,14.85
2023-04-15T14:02:47.473Z,14.67
2023-04-15T14:05:13.742Z,14.64
2023-04-15T14:07:39.892Z,14.87
2023-04-15T14:10:08.934Z,14.95
2023-04-15T14:12:35.087Z,15.11
2023-04-15T14:15:01.226Z,15.16
2023-04-15T14:17:27.412Z,14.96
2023-04-15T14:19:53.546Z,14.96
2023-04-15T14:22:19.743Z,15.00
2023-04-15T14:24:45.890Z,14.94
2023-04-15T14:27:12.019Z,14.97
2023-04-15T14:29:38.428Z,14.87
2023-04-15T14:32:12.157Z,14.60
2023-04-15T14:34:40.077Z,14.22
2023-04-15T14:37:06.236Z,14.10
2023-04-15T14:39:32.376Z,13.96
2023-04-15T14:41:58.528Z,13.79
2023-04-15T14:44:24.731Z,13.67
2023-04-15T14:46:50.847Z,13.47
2023-04-15T14:49:17.038Z,13.40
2023-04-15T14:51:43.270Z,13.26
2023-04-15T14:54:09.422Z,13.01
2023-04-15T14:56:35.582Z,13.01
2023-04-15T14:59:02.041Z,13.00
2023-04-15T15:01:28.629Z,13.05
2023-04-15T15:03:54.813Z,12.91
2023-04-15T15:06:22.940Z,12.76
2023-04-15T15:08:49.110Z,12.67
2023-04-15T15:11:15.289Z,12.59
2023-04-15T15:13:41.602Z,12.52
2023-04-15T15:16:07.920Z,12.49
2023-04-15T15:18:34.259Z,12.39
2023-04-15T15:21:00.449Z,12.37
2023-04-15T15:23:26.631Z,12.09
2023-04-15T15:25:52.800Z,11.96
2023-04-15T15:28:18.925Z,11.94
2023-04-15T15:30:45.079Z,11.93
2023-04-15T15:33:11.242Z,11.96
2023-04-15T15:35:37.432Z,11.85
2023-04-15T15:38:03.654Z,11.80
2023-04-15T15:40:29.857Z,11.71
2023-04-15T15:42:56.023Z,11.59
2023-04-15T15:45:22.168Z,11.48
2023-04-15T15:47:48.391Z,11.44
2023-04-15T15:50:14.566Z,11.41
2023-04-15T15:52:40.686Z,11.44
2023-04-15T15:55:06.885Z,11.27
2023-04-15T15:57:33.061Z,11.32
2023-04-15T16:00:10.523Z,11.33
2023-04-15T16:03:02.052Z,11.18
2023-04-15T16:05:24.671Z,11.08
2023-04-15T16:07:50.852Z,11.03
2023-04-15T16:10:17.052Z,11.04
2023-04-15T16:12:43.235Z,10.95
2023-04-15T16:15:09.414Z,10.84
2023-04-15T16:17:35.664Z,10.79
2023-04-15T16:20:01.920Z,10.73
2023-04-15T16:22:28.128Z,10.78
2023-04-15T16:24:54.426Z,10.89
2023-04-15T16:27:20.596Z,10.89
2023-04-15T16:29:46.833Z,10.96
2023-04-15T16:32:13.137Z,10.95
2023-04-15T16:34:39.432Z,10.87
2023-04-15T16:37:05.571Z,10.86
2023-04-15T16:39:31.692Z,10.79
2023-04-15T16:41:57.877Z,10.75
2023-04-15T16:44:24.029Z,10.68
2023-04-15T16:46:50.236Z,10.67
2023-04-15T16:49:16.474Z,10.57
2023-04-15T16:51:42.657Z,10.50
2023-04-15T16:54:08.818Z,10.44
2023-04-15T16:56:34.967Z,10.35
2023-04-15T16:59:01.394Z,10.32
2023-04-15T17:01:28.722Z,10.24
2023-04-15T17:03:56.176Z,10.16
2023-04-15T17:06:22.518Z,10.15
2023-04-15T17:08:48.661Z,10.08
2023-04-15T17:11:14.942Z,10.07
2023-04-15T17:13:41.304Z,10.07
2023-04-15T17:16:07.488Z,10.02
2023-04-15T17:18:33.684Z,9.96
2023-04-15T17:20:59.866Z,9.94
2023-04-15T17:23:26.054Z,9.93
2023-04-15T17:25:52.225Z,9.97
2023-04-15T17:28:18.346Z,9.90
2023-04-15T17:30:44.522Z,9.91
2023-04-15T17:33:57.482Z,9.91
2023-04-15T17:36:02.173Z,9.89
2023-04-15T17:38:28.370Z,9.85
2023-04-15T17:40:54.560Z,9.81
2023-04-15T17:43:20.761Z,9.71
2023-04-15T17:45:46.957Z,9.75
2023-04-15T17:48:13.128Z,9.71
2023-04-15T17:50:39.343Z,9.64
2023-04-15T17:53:05.558Z,9.63
2023-04-15T17:55:31.796Z,9.63
2023-04-15T17:57:57.929Z,9.53
2023-04-15T18:00:24.078Z,9.51
2023-04-15T18:02:50.450Z,9.45
2023-04-15T18:05:17.621Z,9.45
2023-04-15T18:07:43.827Z,9.41
2023-04-15T18:10:10.012Z,9.38
2023-04-15T18:12:36.172Z,9.43
2023-04-15T18:15:02.315Z,9.40
2023-04-15T18:17:28.585Z,9.40
2023-04-15T18:19:54.797Z,9.43
2023-04-15T18:22:21.005Z,9.46
2023-04-15T18:24:47.150Z,9.45
2023-04-15T18:27:13.360Z,9.44
2023-04-15T18:29:39.553Z,9.48
2023-04-15T18:32:05.938Z,9.39
2023-04-15T18:34:32.171Z,9.38
2023-04-15T18:36:58.344Z,9.34
2023-04-15T18:39:24.586Z,9.33
2023-04-15T18:41:50.820Z,9.34
2023-04-15T18:44:16.969Z,9.33
2023-04-15T18:46:43.189Z,9.34
2023-04-15T18:49:09.354Z,9.35
2023-04-15T18:51:35.575Z,9.31
2023-04-15T18:54:01.737Z,9.30
2023-04-15T18:56:28.054Z,9.31
2023-04-15T18:59:28.173Z,9.31
2023-04-15T19:01:40.602Z,9.36
2023-04-15T19:04:07.076Z,9.36
2023-04-15T19:06:33.273Z,9.36
2023-04-15T19:08:59.512Z,9.33
2023-04-15T19:11:25.640Z,9.30
2023-04-15T19:13:51.768Z,9.26
2023-04-15T19:16:17.984Z,9.28
2023-04-15T19:18:44.215Z,9.23
2023-04-15T19:21:10.393Z,9.23
2023-04-15T19:23:37.772Z,9.24
2023-04-15T19:26:03.962Z,9.25
2023-04-15T19:28:30.101Z,9.21
2023-04-15T19:30:56.293Z,9.18
2023-04-15T19:33:22.510Z,9.22
2023-04-15T19:35:48.724Z,9.19
2023-04-15T19:38:14.912Z,9.18
2023-04-15T19:40:41.092Z,9.19
2023-04-15T19:43:07.249Z,9.14
2023-04-15T19:45:33.459Z,9.20
2023-04-15T19:47:59.723Z,9.17
2023-04-15T19:50:28.856Z,9.16
2023-04-15T19:52:55.026Z,9.16
2023-04-15T19:55:21.200Z,9.12
2023-04-15T19:57:47.386Z,9.10
2023-04-15T20:00:13.568Z,9.16
2023-04-15T20:02:39.848Z,9.12
2023-04-15T20:05:06.163Z,9.12
2023-04-15T20:07:32.306Z,9.11
2023-04-15T20:09:58.446Z,9.08
2023-04-15T20:12:49.546Z,9.08
2023-04-15T20:15:10.813Z,9.06
2023-04-15T20:17:37.035Z,9.01
2023-04-15T20:20:03.248Z,9.02
2023-04-15T20:22:29.432Z,9.03
2023-04-15T20:24:55.621Z,9.02
2023-04-15T20:27:21.824Z,9.02
2023-04-15T20:29:47.986Z,9.02
2023-04-15T20:32:14.175Z,9.02
2023-04-15T20:34:40.464Z,9.05
2023-04-15T20:37:06.678Z,9.00
2023-04-15T20:39:32.856Z,9.02
2023-04-15T20:41:59.022Z,9.03
2023-04-15T20:44:25.176Z,8.95
2023-04-15T20:46:51.397Z,8.99
2023-04-15T20:49:17.568Z,8.98
2023-04-15T20:51:43.722Z,8.98
2023-04-15T20:54:09.862Z,9.00
2023-04-15T20:56:36.035Z,8.99
2023-04-15T20:59:02.310Z,8.98
2023-04-15T21:01:28.655Z,8.95
2023-04-15T21:03:54.946Z,8.95
2023-04-15T21:06:21.126Z,8.93
2023-04-15T21:08:47.274Z,8.96
2023-04-15T21:11:18.889Z,8.94
2023-04-15T21:13:54.776Z,8.95
2023-04-15T21:16:20.998Z,8.90
2023-04-15T21:18:49.135Z,8.90
2023-04-15T21:21:15.271Z,8.89
2023-04-15T21:23:41.431Z,8.88
2023-04-15T21:26:07.613Z,8.95
2023-04-15T21:28:33.781Z,8.92
2023-04-15T21:30:59.969Z,8.92
2023-04-15T21:33:26.160Z,8.91
2023-04-15T21:35:52.322Z,8.95
2023-04-15T21:38:18.508Z,8.95
2023-04-15T21:40:44.686Z,9.00
2023-04-15T21:43:11.544Z,9.05
2023-04-15T21:45:37.801Z,9.07
2023-04-15T21:48:08.246Z,9.13
2023-04-15T21:50:34.808Z,9.22
2023-04-15T21:53:00.994Z,9.21
2023-04-15T21:55:27.167Z,9.18
2023-04-15T21:57:53.328Z,9.20
2023-04-15T22:00:19.503Z,9.22
2023-04-15T22:02:45.826Z,9.24
2023-04-15T22:05:12.036Z,9.24
2023-04-15T22:07:38.202Z,9.21
2023-04-15T22:10:04.317Z,9.21
2023-04-15T22:12:30.492Z,9.28
2023-04-15T22:14:56.655Z,9.32
2023-04-15T22:17:22.898Z,9.34
2023-04-15T22:19:49.069Z,9.40
2023-04-15T22:22:15.260Z,9.40
2023-04-15T22:24:41.411Z,9.39
2023-04-15T22:27:09.903Z,9.36
2023-04-15T22:29:36.039Z,9.38
2023-04-15T22:32:02.268Z,9.43
2023-04-15T22:34:28.444Z,9.43
2023-04-15T22:36:54.605Z,9.43
2023-04-15T22:39:20.718Z,9.44
2023-04-15T22:41:46.867Z,9.44
2023-04-15T22:44:12.992Z,9.45
2023-04-15T22:46:39.269Z,9.48
2023-04-15T22:49:05.745Z,9.48
2023-04-15T22:51:32.122Z,9.48
2023-04-15T22:53:58.292Z,9.48
2023-04-15T22:56:24.411Z,9.47
2023-04-15T22:58:50.521Z,9.47
2023-04-15T23:01:16.732Z,9.46
2023-04-15T23:03:57.774Z,9.46
2023-04-15T23:06:29.053Z,9.45
2023-04-15T23:08:55.191Z,9.50
2023-04-15T23:11:21.356Z,9.49
2023-04-15T23:13:47.477Z,9.50
2023-04-15T23:16:13.690Z,9.47
2023-04-15T23:18:39.923Z,9.46
2023-04-15T23:21:06.103Z,9.44
2023-04-15T23:23:32.227Z,9.45
2023-04-15T23:25:58.380Z,9.44
2023-04-15T23:28:24.585Z,9.44
2023-04-15T23:30:50.745Z,9.44
2023-04-15T23:33:16.901Z,9.41
2023-04-15T23:35:43.071Z,9.45
2023-04-15T23:38:09.203Z,9.40
2023-04-15T23:40:35.358Z,9.40
2023-04-15T23:43:01.518Z,9.38
2023-04-15T23:45:27.708Z,9.35
2023-04-15T23:47:53.863Z,9.35
2023-04-15T23:50:20.045Z,9.34
2023-04-15T23:52:46.204Z,9.31
2023-04-15T23:55:12.366Z,9.26
2023-04-15T23:57:38.527Z,9.28
